createdAt,value
2024-01-09T00:03:10.792Z,46.90
2024-01-09T00:07:14.184Z,44.43
2024-01-09T00:11:18.767Z,45.27
2024-01-09T00:15:23.531Z,43.97
2024-01-09T00:19:26.956Z,49.97
2024-01-09T00:23:30.497Z,51.17
2024-01-09T00:27:34.585Z,46.63
2024-01-09T00:31:39.672Z,51.20
2024-01-09T00:35:43.081Z,42.40
2024-01-09T00:39:46.870Z,41.83
2024-01-09T00:43:50.259Z,45.43
2024-01-09T00:47:55.141Z,47.33
2024-01-09T00:51:58.692Z,47.90
2024-01-09T00:56:02.043Z,45.93
2024-01-09T01:00:06.043Z,40.57
2024-01-09T01:04:10.786Z,47.90
2024-01-09T01:08:14.283Z,43.77
2024-01-09T01:12:17.667Z,47.13
2024-01-09T01:16:21.026Z,41.83
2024-01-09T01:20:25.950Z,44.33
2024-01-09T01:24:29.351Z,44.47
2024-01-09T01:28:32.790Z,43.43
2024-01-09T01:32:36.185Z,43.27
2024-01-09T01:36:41.016Z,44.70
2024-01-09T01:40:44.469Z,46.30
2024-01-09T01:44:47.892Z,43.07
2024-01-09T01:48:52.513Z,45.80
2024-01-09T01:52:57.693Z,44.40
2024-01-09T01:57:02.742Z,42.57
2024-01-09T02:01:06.725Z,44.20
2024-01-09T02:05:10.992Z,42.70
2024-01-09T02:09:16.610Z,41.37
2024-01-09T02:13:20.121Z,42.83
2024-01-09T02:17:24.127Z,46.97
2024-01-09T02:21:27.525Z,44.60
2024-01-09T02:25:32.376Z,51.30
2024-01-09T02:29:37.622Z,45.23
2024-01-09T02:33:42.966Z,44.90
2024-01-09T02:37:46.663Z,44.50
2024-01-09T02:41:50.116Z,46.83
2024-01-09T02:45:53.618Z,45.93
2024-01-09T02:49:58.356Z,44.87
2024-01-09T02:54:01.739Z,46.20
2024-01-09T02:58:05.531Z,44.60
2024-01-09T03:02:08.989Z,48.87
2024-01-09T03:06:14.060Z,44.23
2024-01-09T03:10:17.661Z,46.97
2024-01-09T03:14:21.050Z,42.77
2024-01-09T03:18:24.700Z,46.50
2024-01-09T03:22:29.561Z,45.10
2024-01-09T03:26:32.941Z,46.20
2024-01-09T03:30:36.818Z,46.47
2024-01-09T03:34:43.423Z,47.87
2024-01-09T03:38:48.560Z,46.30
2024-01-09T03:42:52.006Z,43.40
2024-01-09T03:46:55.384Z,43.70
2024-01-09T03:50:58.794Z,43.17
2024-01-09T03:55:03.577Z,43.80
2024-01-09T03:59:07.010Z,45.50
2024-01-09T04:03:10.355Z,45.77
2024-01-09T04:07:13.745Z,47.33
2024-01-09T04:11:18.548Z,42.50
2024-01-09T04:15:22.081Z,44.07
2024-01-09T04:19:25.523Z,51.83
2024-01-09T04:23:28.910Z,45.10
2024-01-09T04:27:33.759Z,44.17
2024-01-09T04:31:37.759Z,42.37
2024-01-09T04:35:41.225Z,43.17
2024-01-09T04:39:44.637Z,51.50
2024-01-09T04:43:49.756Z,45.20
2024-01-09T04:47:53.307Z,45.20
2024-01-09T04:51:56.725Z,47.17
2024-01-09T04:56:00.157Z,43.30
2024-01-09T05:00:05.992Z,47.27
2024-01-09T05:04:10.445Z,43.40
2024-01-09T05:08:14.526Z,48.87
2024-01-09T05:12:18.053Z,48.13
2024-01-09T05:16:22.817Z,44.37
2024-01-09T05:20:26.309Z,45.43
2024-01-09T05:24:29.681Z,49.00
2024-01-09T05:28:33.080Z,47.80
2024-01-09T05:32:38.152Z,48.73
2024-01-09T05:36:41.600Z,43.77
2024-01-09T05:40:45.010Z,43.87
2024-01-09T05:44:48.391Z,44.40
2024-01-09T05:48:53.495Z,47.00
2024-01-09T05:52:57.010Z,51.20
2024-01-09T05:57:00.472Z,43.10
2024-01-09T06:01:04.239Z,47.47
2024-01-09T06:05:09.898Z,44.27
2024-01-09T06:09:14.206Z,50.00
2024-01-09T06:13:17.593Z,45.30
2024-01-09T06:17:21.112Z,43.90
2024-01-09T06:21:25.966Z,52.70
2024-01-09T06:25:29.417Z,50.23
2024-01-09T06:29:32.886Z,45.27
2024-01-09T06:33:36.546Z,43.50
2024-01-09T06:37:41.485Z,50.20
2024-01-09T06:41:45.737Z,47.30
2024-01-09T06:45:49.106Z,45.87
2024-01-09T06:49:55.584Z,46.50
2024-01-09T06:54:00.781Z,48.20
2024-01-09T06:58:05.345Z,48.03
2024-01-09T07:02:10.044Z,47.83
2024-01-09T07:06:13.548Z,45.53
2024-01-09T07:10:18.772Z,44.67
2024-01-09T07:14:22.256Z,49.67
2024-01-09T07:18:26.126Z,55.40
2024-01-09T07:22:29.646Z,51.17
2024-01-09T07:26:40.038Z,47.33
2024-01-09T07:30:43.470Z,50.23
2024-01-09T07:34:47.331Z,47.87
2024-01-09T07:38:50.889Z,47.50
2024-01-09T07:43:01.302Z,47.73
2024-01-09T07:47:05.425Z,49.70
2024-01-09T07:51:08.957Z,54.70
2024-01-09T07:55:12.437Z,44.40
2024-01-09T07:59:17.269Z,50.63
2024-01-09T08:03:22.679Z,53.30
2024-01-09T08:07:26.541Z,48.90
2024-01-09T08:11:29.960Z,49.50
2024-01-09T08:15:35.053Z,48.30
2024-01-09T08:19:38.597Z,50.90
2024-01-09T08:23:42.455Z,48.17
2024-01-09T08:27:46.128Z,52.50
2024-01-09T08:31:51.375Z,44.17
2024-01-09T08:35:54.964Z,47.17
2024-01-09T08:39:58.480Z,43.63
2024-01-09T08:44:02.220Z,41.80
2024-01-09T08:48:08.172Z,43.40
2024-01-09T08:52:11.693Z,44.40
2024-01-09T08:56:15.678Z,48.97
2024-01-09T09:00:20.431Z,43.43
2024-01-09T09:04:25.209Z,41.37
2024-01-09T09:08:28.592Z,42.47
2024-01-09T09:12:32.399Z,42.83
2024-01-09T09:16:38.038Z,41.53
2024-01-09T09:20:43.231Z,43.70
2024-01-09T09:24:46.628Z,44.07
2024-01-09T09:29:02.547Z,40.63
2024-01-09T09:33:13.559Z,44.27
2024-01-09T09:37:18.403Z,41.90
2024-01-09T09:41:22.906Z,41.37
2024-01-09T09:45:27.348Z,46.87
2024-01-09T09:49:31.424Z,44.23
2024-01-09T09:53:38.622Z,39.97
2024-01-09T09:57:42.361Z,38.87
2024-01-09T10:01:48.216Z,42.80
2024-01-09T10:05:53.959Z,41.13
2024-01-09T10:10:02.408Z,45.50
2024-01-09T10:14:09.030Z,38.60
2024-01-09T10:18:12.522Z,38.40
2024-01-09T10:22:16.026Z,42.10
2024-01-09T10:26:21.020Z,37.90
2024-01-09T10:30:25.989Z,37.70
2024-01-09T10:34:29.592Z,38.07
2024-01-09T10:38:33.934Z,46.43
2024-01-09T10:42:46.970Z,35.83
2024-01-09T10:46:51.883Z,43.27
2024-01-09T10:50:56.739Z,40.53
2024-01-09T10:55:01.849Z,45.00
2024-01-09T10:59:07.944Z,36.30
2024-01-09T11:03:12.693Z,38.73
2024-01-09T11:07:17.537Z,36.13
2024-01-09T11:11:23.450Z,44.07
2024-01-09T11:15:33.082Z,39.57
2024-01-09T11:19:36.627Z,36.10
2024-01-09T11:23:59.195Z,36.47
2024-01-09T11:28:02.976Z,38.60
2024-01-09T11:32:10.322Z,37.10
2024-01-09T11:36:13.943Z,35.53
2024-01-09T11:40:19.057Z,38.90
2024-01-09T11:44:22.515Z,36.83
2024-01-09T11:48:27.521Z,33.00
2024-01-09T11:52:30.961Z,33.30
2024-01-09T11:56:34.699Z,35.43
2024-01-09T12:00:38.485Z,33.47
2024-01-09T12:04:44.213Z,34.50
2024-01-09T12:08:48.036Z,33.77
2024-01-09T12:12:51.496Z,34.80
2024-01-09T12:16:54.859Z,35.17
2024-01-09T12:20:59.775Z,34.30
2024-01-09T12:25:03.750Z,36.10
2024-01-09T12:29:07.801Z,45.37
2024-01-09T12:33:11.444Z,33.80
2024-01-09T12:37:16.867Z,34.77
2024-01-09T12:41:25.170Z,32.93
2024-01-09T12:45:29.055Z,36.27
2024-01-09T12:49:32.555Z,33.77
2024-01-09T12:53:38.919Z,38.07
2024-01-09T12:57:42.341Z,42.80
2024-01-09T13:01:45.700Z,38.60
2024-01-09T13:05:49.268Z,33.30
2024-01-09T13:09:54.067Z,34.90
2024-01-09T13:14:00.370Z,33.97
2024-01-09T13:18:08.967Z,31.73
2024-01-09T13:26:22.263Z,36.10
2024-01-09T13:30:48.252Z,34.80
2024-01-09T13:34:49.011Z,34.20
2024-01-09T13:38:52.432Z,34.07
2024-01-09T13:42:57.136Z,36.03
2024-01-09T13:47:01.354Z,32.57
2024-01-09T13:51:49.407Z,33.67
2024-01-09T13:55:28.248Z,35.40
2024-01-09T13:59:34.176Z,32.87
2024-01-09T14:03:38.694Z,39.10
2024-01-09T14:07:44.195Z,37.07
2024-01-09T14:11:49.290Z,33.70
2024-01-09T14:15:55.779Z,34.73
2024-01-09T14:19:59.499Z,33.37
2024-01-09T14:24:03.328Z,32.57
2024-01-09T14:28:06.887Z,36.13
2024-01-09T14:32:12.120Z,33.80
2024-01-09T14:36:15.668Z,32.57
2024-01-09T14:40:19.266Z,39.57
2024-01-09T14:44:23.313Z,36.83
2024-01-09T14:48:29.510Z,32.30
2024-01-09T14:56:37.669Z,34.27
2024-01-09T15:00:42.188Z,35.10
2024-01-09T15:04:47.400Z,39.67
2024-01-09T15:08:50.938Z,33.00
2024-01-09T15:12:55.674Z,38.03
2024-01-09T15:16:59.756Z,32.43
2024-01-09T15:21:05.165Z,33.70
2024-01-09T15:25:11.356Z,33.47
2024-01-09T15:29:15.172Z,35.53
2024-01-09T15:33:18.926Z,34.60
2024-01-09T15:37:24.006Z,34.60
2024-01-09T15:41:27.614Z,33.60
2024-01-09T15:45:32.573Z,32.53
2024-01-09T15:49:48.057Z,34.70
2024-01-09T15:53:54.258Z,36.40
2024-01-09T15:57:58.701Z,34.70
2024-01-09T16:02:04.095Z,35.17
2024-01-09T16:06:09.011Z,34.93
2024-01-09T16:10:14.243Z,36.67
2024-01-09T16:14:18.425Z,38.37
2024-01-09T16:18:22.267Z,35.43
2024-01-09T16:22:26.117Z,35.70
2024-01-09T16:26:31.705Z,37.00
2024-01-09T16:30:35.306Z,35.97
2024-01-09T16:34:38.839Z,33.97
2024-01-09T16:38:46.627Z,36.27
2024-01-09T16:42:51.547Z,35.60
2024-01-09T16:46:55.529Z,36.03
2024-01-09T16:50:59.027Z,32.87
2024-01-09T16:55:02.574Z,36.33
2024-01-09T16:59:07.572Z,36.50
2024-01-09T17:03:11.105Z,34.30
2024-01-09T17:07:14.620Z,33.03
2024-01-09T17:11:18.578Z,34.60
2024-01-09T17:15:27.230Z,37.60
2024-01-09T17:19:30.587Z,37.10
2024-01-09T17:23:34.116Z,36.90
2024-01-09T17:27:38.433Z,36.40
2024-01-09T17:31:44.723Z,37.03
2024-01-09T17:35:50.143Z,35.10
2024-01-09T17:39:55.120Z,35.77
2024-01-09T17:44:00.063Z,38.20
2024-01-09T17:48:07.582Z,35.43
2024-01-09T17:52:11.065Z,36.67
2024-01-09T17:56:15.571Z,36.70
2024-01-09T18:00:20.184Z,36.90
2024-01-09T18:04:25.625Z,34.57
2024-01-09T18:08:29.331Z,36.50
2024-01-09T18:12:35.963Z,36.40
2024-01-09T18:16:40.318Z,37.30
2024-01-09T18:20:45.362Z,37.70
2024-01-09T18:24:54.055Z,39.10
2024-01-09T18:29:10.197Z,36.60
2024-01-09T18:33:20.280Z,43.83
2024-01-09T18:37:26.641Z,43.40
2024-01-09T18:48:17.173Z,36.80
2024-01-09T18:52:21.493Z,37.40
2024-01-09T18:56:28.008Z,39.90
2024-01-09T19:00:32.429Z,35.97
2024-01-09T19:09:53.168Z,36.97
2024-01-09T19:14:03.501Z,37.73
2024-01-09T19:18:11.648Z,36.70
2024-01-09T19:22:16.449Z,40.67
2024-01-09T19:26:21.819Z,39.43
2024-01-09T19:30:30.435Z,41.27
2024-01-09T19:34:46.635Z,38.10
2024-01-09T19:38:52.020Z,37.00
2024-01-09T19:42:55.815Z,37.87
2024-01-09T19:47:04.758Z,37.27
2024-01-09T19:51:10.267Z,37.73
2024-01-09T19:55:14.512Z,42.23
2024-01-09T19:59:19.285Z,38.40
2024-01-09T20:03:25.451Z,41.90
2024-01-09T20:07:30.300Z,43.97
2024-01-09T20:11:37.756Z,44.73
2024-01-09T20:15:42.012Z,43.27
2024-01-09T20:19:49.470Z,38.33
2024-01-09T21:52:35.220Z,33.87
2024-01-09T21:56:38.634Z,30.80
2024-01-09T22:00:42.060Z,36.47
2024-01-09T22:04:45.551Z,32.97
2024-01-09T22:08:50.493Z,33.53
2024-01-09T22:12:53.829Z,34.20
2024-01-09T22:16:57.969Z,35.00
2024-01-09T22:21:03.008Z,35.73
2024-01-09T22:25:08.507Z,38.63
2024-01-09T22:29:12.363Z,32.20
2024-01-09T22:33:15.892Z,33.47
2024-01-09T22:37:19.289Z,37.10
2024-01-09T22:41:25.319Z,38.77
2024-01-09T22:45:29.050Z,37.73
2024-01-09T22:49:32.947Z,36.20
2024-01-09T22:53:38.499Z,35.40
2024-01-09T22:57:43.253Z,34.93
2024-01-09T23:01:51.325Z,35.40
2024-01-09T23:05:54.909Z,34.10
2024-01-09T23:09:58.324Z,38.20
2024-01-09T23:14:03.069Z,36.70
2024-01-09T23:18:07.204Z,34.17
2024-01-09T23:22:10.727Z,37.30
2024-01-09T23:26:14.168Z,38.60
2024-01-09T23:30:19.205Z,36.20
2024-01-09T23:34:23.105Z,34.90
2024-01-09T23:38:26.663Z,36.60
2024-01-09T23:42:30.400Z,36.67
2024-01-09T23:46:35.266Z,41.03
2024-01-09T23:50:39.611Z,35.40
2024-01-09T23:54:43.006Z,36.53
2024-01-09T23:58:46.368Z,35.20
